Sunday, October 22, 2017, 8:28 PM EDT
Back to Local

KBDR, Sikorsky Memorial Airport

Location: Stratford, CT, United States Lat: 41.167
Local Time: 8:28 PM EDT ( 0:28 GMT) Lon: -73.133
Time Zone: US/Eastern Elev: 9 ft

Show me the last for .
Show Decoded

2017-10-22 19:52 METAR KBDR 222352Z AUTO 19007KT 10SM CLR 17/11 A3038 RMK AO2 SLP286 T01720111
                 10244 20172 53005 $ =
2017-10-22 18:52 METAR KBDR 222252Z AUTO 18006KT 10SM CLR 19/11 A3037 RMK AO2 SLP284 T01890111 $
                 =
2017-10-22 17:52 METAR KBDR 222152Z AUTO 18005KT 10SM CLR 19/13 A3036 RMK AO2 SLP281 T01940128 $
                 =
2017-10-22 16:52 METAR KBDR 222052Z AUTO 15005KT 10SM CLR 21/14 A3036 RMK AO2 SLP281 T02060139
                 56005 $ =
2017-10-22 15:52 METAR KBDR 221952Z AUTO 16005KT 10SM CLR 22/12 A3037 RMK AO2 SLP283 T02170122 $
                 =
2017-10-22 14:52 METAR KBDR 221852Z 22004KT 10SM CLR 23/07 A3037 RMK AO2 SLP282 T02330072 $ =
2017-10-22 13:52 METAR KBDR 221752Z 22005KT 10SM CLR 23/09 A3038 RMK AO2 SLP286 T02280089 10228
                 20106 58013 $ =
2017-10-22 12:52 METAR KBDR 221652Z VRB03KT 10SM CLR 21/10 A3039 RMK AO2 SLP292 T02110100 $ =
2017-10-22 11:52 METAR KBDR 221552Z 21004KT 10SM CLR 21/08 A3040 RMK AO2 SLP295 T02060083 $ =
2017-10-22 10:52 METAR KBDR 221452Z 10003KT 10SM CLR 18/09 A3041 RMK AO2 SLP299 T01830089 50004 $
                 =
2017-10-22 09:52 METAR KBDR 221352Z 04003KT 10SM CLR 16/09 A3042 RMK AO2 SLP300 T01610094 $ =
2017-10-22 08:52 METAR KBDR 221252Z 01004KT 10SM CLR 13/09 A3042 RMK AO2 SLP300 T01330094 $ =
2017-10-22 07:52 METAR KBDR 221152Z 36003KT 10SM CLR 11/08 A3040 RMK AO2 SLP294 T01060083 10111
                 20083 53015 $ =
2017-10-22 06:52 METAR KBDR 221052Z 02003KT 10SM CLR 10/07 A3038 RMK AO2 SLP286 T01000072 $ =
2017-10-22 05:52 METAR KBDR 220952Z AUTO 35003KT 10SM CLR 09/07 A3037 RMK AO2 SLP283 T00940072 $
                 =
2017-10-22 04:52 METAR KBDR 220852Z AUTO 00000KT 10SM CLR 09/07 A3036 RMK AO2 SLP280 T00940072
                 53002 $ =
2017-10-22 03:52 METAR KBDR 220752Z AUTO 00000KT 10SM CLR 10/08 A3035 RMK AO2 SLP277 T01000078 $
                 =
2017-10-22 02:52 METAR KBDR 220652Z AUTO 35003KT 10SM CLR 11/09 A3035 RMK AO2 SLP277 T01110089 $
                 =
2017-10-22 01:52 METAR KBDR 220552Z AUTO 00000KT 10SM CLR 11/08 A3035 RMK AO2 SLP278 T01060078
                 10189 20100 53001 $ =
2017-10-22 00:52 METAR KBDR 220452Z AUTO 00000KT 10SM CLR 12/09 A3035 RMK AO2 SLP277 T01220094
                 402280078 $ =
2017-10-21 23:52 METAR KBDR 220352Z AUTO 00000KT 10SM CLR 13/09 A3035 RMK AO2 SLP277 T01280089 $
                 =
2017-10-21 22:52 METAR KBDR 220252Z AUTO 00000KT 10SM CLR 14/09 A3035 RMK AO2 SLP277 T01390089
                 51005 $ =
2017-10-21 21:52 METAR KBDR 220152Z 26004KT 10SM CLR 16/10 A3035 RMK AO2 SLP276 T01560100 $ =
2017-10-21 20:52 METAR KBDR 220052Z 23006KT 10SM CLR 18/11 A3034 RMK AO2 SLP273 T01830111 $ =

Support USWX by starting your Amazon purchase here.